createdAt,value
2023-11-01T00:01:59.155Z,4.22
2023-11-01T00:04:27.890Z,6.35
2023-11-01T00:06:56.196Z,3.92
2023-11-01T00:09:24.490Z,5.20
2023-11-01T00:11:52.816Z,5.05
2023-11-01T00:14:21.787Z,6.15
2023-11-01T00:16:51.578Z,4.45
2023-11-01T00:19:20.362Z,4.38
2023-11-01T00:21:48.792Z,4.03
2023-11-01T00:24:17.154Z,3.88
2023-11-01T00:26:45.483Z,4.18
2023-11-01T00:29:14.030Z,5.35
2023-11-01T00:31:44.865Z,6.43
2023-11-01T00:34:18.175Z,6.10
2023-11-01T00:36:46.513Z,5.38
2023-11-01T00:39:14.898Z,13.18
2023-11-01T00:41:43.256Z,9.70
2023-11-01T00:44:11.691Z,4.70
2023-11-01T00:46:40.056Z,5.07
2023-11-01T00:49:08.444Z,5.95
2023-11-01T00:51:38.135Z,9.00
2023-11-01T00:54:06.970Z,8.32
2023-11-01T00:56:35.293Z,9.77
2023-11-01T00:59:03.594Z,10.75
2023-11-01T01:01:32.973Z,8.98
2023-11-01T01:04:01.631Z,4.75
2023-11-01T01:06:30.025Z,9.13
2023-11-01T01:08:59.728Z,9.57
2023-11-01T01:11:28.062Z,10.52
2023-11-01T01:13:56.391Z,5.65
2023-11-01T01:16:24.716Z,8.90
2023-11-01T01:18:53.119Z,6.10
2023-11-01T01:21:21.405Z,5.40
2023-11-01T01:23:49.726Z,6.60
2023-11-01T01:26:19.399Z,3.58
2023-11-01T01:28:47.796Z,5.38
2023-11-01T01:31:16.175Z,9.60
2023-11-01T01:33:45.492Z,12.25
2023-11-01T01:36:14.130Z,11.55
2023-11-01T01:38:42.509Z,19.63
2023-11-01T01:41:10.852Z,12.73
2023-11-01T01:43:40.851Z,11.15
2023-11-01T01:46:11.959Z,11.63
2023-11-01T01:48:41.524Z,6.50
2023-11-01T01:51:10.454Z,4.70
2023-11-01T01:53:42.291Z,6.00
2023-11-01T01:56:10.999Z,5.57
2023-11-01T01:58:43.457Z,7.38
2023-11-01T02:01:12.360Z,5.25
2023-11-01T02:03:40.858Z,7.68
2023-11-01T02:06:09.772Z,6.72
2023-11-01T02:08:38.228Z,4.15
2023-11-01T02:11:07.069Z,7.25
2023-11-01T02:13:35.343Z,6.68
2023-11-01T02:16:05.639Z,5.10
2023-11-01T02:18:34.304Z,6.18
2023-11-01T02:21:06.153Z,7.03
2023-11-01T02:23:37.168Z,6.30
2023-11-01T02:26:05.792Z,7.65
2023-11-01T02:28:34.099Z,3.92
2023-11-01T02:31:04.576Z,4.95
2023-11-01T02:33:32.868Z,6.53
2023-11-01T02:36:01.197Z,4.20
2023-11-01T02:38:28.565Z,3.40
2023-11-01T02:40:58.336Z,5.32
2023-11-01T02:43:26.778Z,6.20
2023-11-01T02:45:55.393Z,3.03
2023-11-01T02:48:23.776Z,4.35
2023-11-01T02:50:52.109Z,4.63
2023-11-01T02:53:20.513Z,5.20
2023-11-01T02:55:48.856Z,4.32
2023-11-01T02:58:18.540Z,6.03
2023-11-01T03:00:46.826Z,7.63
2023-11-01T03:03:15.564Z,5.00
2023-11-01T03:05:43.925Z,5.88
2023-11-01T03:08:12.245Z,4.72
2023-11-01T03:10:40.572Z,5.93
2023-11-01T03:13:08.897Z,7.63
2023-11-01T03:15:38.601Z,7.32
2023-11-01T03:18:07.374Z,7.35
2023-11-01T03:20:35.860Z,6.60
2023-11-01T03:23:05.029Z,6.85
2023-11-01T03:25:33.358Z,8.98
2023-11-01T03:28:01.716Z,9.73
2023-11-01T03:30:30.122Z,7.85
2023-11-01T03:32:59.936Z,8.02
2023-11-01T03:35:28.331Z,9.15
2023-11-01T03:37:56.660Z,6.40
2023-11-01T03:40:24.930Z,8.63
2023-11-01T03:42:53.234Z,5.45
2023-11-01T03:45:21.622Z,7.72
2023-11-01T03:47:50.045Z,9.95
2023-11-01T03:50:19.817Z,7.05
2023-11-01T03:52:48.124Z,7.15
2023-11-01T03:55:16.550Z,5.20
2023-11-01T03:57:44.926Z,10.23
2023-11-01T04:00:22.086Z,6.95
2023-11-01T04:02:52.099Z,6.80
2023-11-01T04:05:21.992Z,3.25
2023-11-01T04:07:50.569Z,5.95
2023-11-01T04:10:18.912Z,8.95
2023-11-01T04:12:47.468Z,8.23
2023-11-01T04:15:17.480Z,5.05
2023-11-01T04:17:45.957Z,8.90
2023-11-01T04:20:14.466Z,4.65
2023-11-01T04:22:44.188Z,4.60
2023-11-01T04:25:12.847Z,9.32
2023-11-01T04:27:42.632Z,5.68
2023-11-01T04:30:12.114Z,5.22
2023-11-01T04:32:41.671Z,4.38
2023-11-01T04:35:11.122Z,8.60
2023-11-01T04:37:39.807Z,4.88
2023-11-01T04:40:12.361Z,6.53
2023-11-01T04:42:41.871Z,6.78
2023-11-01T04:45:11.639Z,5.97
2023-11-01T04:47:43.802Z,6.80
2023-11-01T04:50:13.485Z,5.05
2023-11-01T04:52:43.572Z,5.22
2023-11-01T04:55:13.466Z,5.35
2023-11-01T04:57:44.136Z,5.90
2023-11-01T05:00:17.432Z,5.93
2023-11-01T05:02:47.228Z,6.88
2023-11-01T05:05:15.877Z,8.48
2023-11-01T05:07:44.403Z,10.23
2023-11-01T05:10:14.066Z,7.97
2023-11-01T05:12:42.382Z,8.77
2023-11-01T05:15:11.857Z,9.65
2023-11-01T05:17:41.416Z,5.78
2023-11-01T05:20:11.423Z,7.35
2023-11-01T05:22:39.772Z,9.07
2023-11-01T05:25:14.652Z,9.35
2023-11-01T05:27:45.154Z,7.95
2023-11-01T05:30:16.609Z,11.75
2023-11-01T05:32:46.831Z,7.55
2023-11-01T05:35:16.271Z,7.68
2023-11-01T05:37:45.267Z,7.78
2023-11-01T05:40:17.339Z,8.65
2023-11-01T05:42:48.998Z,6.97
2023-11-01T05:45:18.677Z,8.27
2023-11-01T05:47:52.189Z,7.32
2023-11-01T05:50:24.626Z,6.82
2023-11-01T05:52:54.404Z,8.13
2023-11-01T05:55:30.050Z,7.20
2023-11-01T05:58:09.030Z,7.43
2023-11-01T06:00:37.751Z,8.02
2023-11-01T06:03:07.885Z,8.25
2023-11-01T06:05:37.326Z,10.93
2023-11-01T06:08:05.962Z,7.63
2023-11-01T06:10:34.453Z,6.72
2023-11-01T06:13:02.756Z,7.85
2023-11-01T06:15:32.392Z,10.10
2023-11-01T06:18:00.884Z,5.80
2023-11-01T06:20:29.299Z,7.07
2023-11-01T06:22:57.628Z,7.40
2023-11-01T06:25:25.170Z,7.85
2023-11-01T06:27:53.465Z,10.80
2023-11-01T06:30:21.874Z,7.03
2023-11-01T06:32:51.671Z,11.90
2023-11-01T06:35:20.262Z,9.43
2023-11-01T06:37:49.829Z,10.32
2023-11-01T06:40:18.334Z,12.23
2023-11-01T06:42:46.651Z,9.20
2023-11-01T06:45:15.069Z,9.68
2023-11-01T06:47:43.553Z,7.25
2023-11-01T06:50:13.392Z,6.38
2023-11-01T06:52:45.801Z,9.15
2023-11-01T06:55:14.316Z,12.68
2023-11-01T06:57:42.727Z,11.25
2023-11-01T07:00:12.149Z,7.28
2023-11-01T07:02:40.747Z,6.45
2023-11-01T07:05:09.544Z,8.38
2023-11-01T07:07:39.193Z,9.52
2023-11-01T07:10:09.109Z,6.97
2023-11-01T07:12:37.434Z,6.00
2023-11-01T07:15:09.096Z,7.80
2023-11-01T07:17:37.546Z,8.30
2023-11-01T07:20:09.528Z,8.98
2023-11-01T07:22:55.377Z,6.95
2023-11-01T07:25:23.820Z,8.35
2023-11-01T07:27:52.316Z,9.07
2023-11-01T07:30:20.798Z,6.90
2023-11-01T07:32:49.202Z,9.40
2023-11-01T07:35:17.660Z,9.93
2023-11-01T07:37:47.358Z,6.18
2023-11-01T07:40:15.645Z,23.65
2023-11-01T07:42:46.489Z,13.43
2023-11-01T07:45:14.952Z,8.35
2023-11-01T07:47:43.458Z,9.57
2023-11-01T07:50:13.568Z,9.07
2023-11-01T07:52:42.024Z,6.47
2023-11-01T07:55:12.835Z,7.20
2023-11-01T07:57:41.193Z,9.50
2023-11-01T08:00:11.490Z,6.85
2023-11-01T08:02:40.332Z,6.95
2023-11-01T08:05:09.434Z,9.23
2023-11-01T08:07:37.834Z,10.07
2023-11-01T08:10:07.152Z,8.32
2023-11-01T08:12:36.834Z,12.73
2023-11-01T08:15:06.005Z,6.82
2023-11-01T08:17:34.984Z,5.43
2023-11-01T08:20:03.471Z,6.60
2023-11-01T08:22:31.891Z,11.93
2023-11-01T08:25:00.260Z,10.32
2023-11-01T08:27:28.586Z,7.55
2023-11-01T08:29:58.365Z,6.70
2023-11-01T08:32:26.825Z,9.90
2023-11-01T08:34:58.358Z,9.10
2023-11-01T08:37:26.723Z,8.80
2023-11-01T08:39:55.103Z,10.20
2023-11-01T08:42:23.411Z,10.13
2023-11-01T08:44:51.743Z,10.70
2023-11-01T08:47:40.134Z,9.38
2023-11-01T08:50:11.356Z,9.02
2023-11-01T08:52:40.841Z,9.60
2023-11-01T08:55:12.800Z,11.20
2023-11-01T08:57:41.183Z,9.80
2023-11-01T09:00:10.727Z,10.23
2023-11-01T09:02:40.799Z,9.68
2023-11-01T09:05:09.973Z,11.05
2023-11-01T09:07:39.753Z,8.95
2023-11-01T09:10:10.134Z,11.38
2023-11-01T09:12:38.884Z,6.20
2023-11-01T09:15:08.302Z,8.38
2023-11-01T09:17:36.726Z,11.02
2023-11-01T09:20:08.518Z,10.13
2023-11-01T09:22:36.909Z,9.38
2023-11-01T09:25:05.820Z,9.65
2023-11-01T09:27:34.151Z,14.48
2023-11-01T09:30:02.486Z,10.45
2023-11-01T09:32:31.029Z,10.70
2023-11-01T09:34:59.549Z,12.10
2023-11-01T09:37:29.230Z,10.45
2023-11-01T09:39:57.559Z,9.70
2023-11-01T09:42:26.666Z,10.35
2023-11-01T09:44:58.370Z,10.23
2023-11-01T09:47:27.615Z,12.20
2023-11-01T09:49:57.092Z,11.30
2023-11-01T09:52:27.468Z,16.92
2023-11-01T09:54:57.342Z,11.65
2023-11-01T09:57:27.439Z,12.55
2023-11-01T09:59:56.993Z,11.48
2023-11-01T10:02:26.557Z,10.70
2023-11-01T10:04:55.808Z,8.52
2023-11-01T10:07:24.385Z,11.85
2023-11-01T10:09:53.217Z,9.30
2023-11-01T10:12:23.232Z,11.75
2023-11-01T10:14:51.802Z,9.43
2023-11-01T10:17:20.215Z,11.50
2023-11-01T10:19:49.007Z,11.27
2023-11-01T10:22:17.924Z,10.40
2023-11-01T10:24:46.304Z,9.48
2023-11-01T10:27:14.671Z,14.18
2023-11-01T10:29:46.798Z,10.65
2023-11-01T10:32:15.609Z,8.52
2023-11-01T10:34:44.215Z,12.75
2023-11-01T10:37:12.951Z,13.32
2023-11-01T10:39:41.694Z,11.77
2023-11-01T10:42:11.621Z,9.73
2023-11-01T10:44:40.635Z,10.60
2023-11-01T10:47:11.111Z,10.38
2023-11-01T10:49:40.138Z,8.23
2023-11-01T10:52:10.401Z,9.40
2023-11-01T10:54:39.409Z,8.98
2023-11-01T10:57:08.448Z,11.05
2023-11-01T10:59:44.209Z,11.25
2023-11-01T11:02:29.589Z,9.43
2023-11-01T11:05:06.834Z,9.30
2023-11-01T11:07:46.758Z,11.80
2023-11-01T11:10:28.879Z,10.27
2023-11-01T11:13:29.718Z,7.93
2023-11-01T11:16:00.737Z,7.05
2023-11-01T11:18:57.048Z,9.02
2023-11-01T11:22:06.760Z,9.15
2023-11-01T11:24:52.317Z,14.43
2023-11-01T11:28:08.791Z,10.93
2023-11-01T11:31:01.622Z,21.52
2023-11-01T11:33:32.279Z,11.85
2023-11-01T11:36:26.411Z,9.75
2023-11-01T11:38:57.567Z,12.43
2023-11-01T11:41:27.025Z,8.98
2023-11-01T11:44:06.843Z,7.43
2023-11-01T11:46:37.218Z,14.13
2023-11-01T11:49:06.869Z,8.15
2023-11-01T11:51:37.780Z,10.35
2023-11-01T11:54:14.207Z,9.27
2023-11-01T11:56:42.859Z,9.15
2023-11-01T11:59:12.114Z,6.05
2023-11-01T12:01:40.633Z,7.03
2023-11-01T12:04:10.087Z,6.65
2023-11-01T12:06:45.270Z,12.65
2023-11-01T12:09:17.483Z,8.85
2023-11-01T12:11:50.335Z,10.68
2023-11-01T12:14:21.079Z,9.25
2023-11-01T12:16:50.756Z,8.20
2023-11-01T12:19:21.201Z,10.15
2023-11-01T12:21:52.494Z,11.13
2023-11-01T12:24:23.314Z,7.55
2023-11-01T12:27:06.560Z,7.75
2023-11-01T12:29:37.219Z,8.77
2023-11-01T12:32:07.516Z,9.70
2023-11-01T12:34:36.856Z,9.02
2023-11-01T12:37:10.404Z,9.27
2023-11-01T12:39:40.132Z,10.65
2023-11-01T12:42:26.743Z,7.25
2023-11-01T12:44:57.204Z,10.70
2023-11-01T12:47:28.444Z,5.40
2023-11-01T12:49:59.588Z,14.98
2023-11-01T12:52:29.319Z,8.23
2023-11-01T12:54:57.678Z,11.40
2023-11-01T12:57:26.186Z,19.08
2023-11-01T12:59:54.561Z,7.03
2023-11-01T13:02:23.902Z,5.07
2023-11-01T13:04:52.424Z,6.53
2023-11-01T13:07:21.042Z,8.68
2023-11-01T13:09:50.724Z,10.02
2023-11-01T13:12:19.021Z,10.98
2023-11-01T13:14:47.381Z,6.82
2023-11-01T13:17:15.708Z,24.00
2023-11-01T13:19:44.032Z,8.82
2023-11-01T13:22:12.633Z,9.50
2023-11-01T13:24:40.937Z,8.48
2023-11-01T13:27:11.061Z,9.43
2023-11-01T13:29:40.622Z,14.98
2023-11-01T13:32:09.557Z,10.15
2023-11-01T13:34:38.363Z,9.35
2023-11-01T13:37:07.542Z,8.88
2023-11-01T13:39:36.312Z,9.15
2023-11-01T13:42:04.714Z,12.55
2023-11-01T13:44:34.542Z,10.18
2023-11-01T13:47:02.943Z,8.88
2023-11-01T13:49:31.325Z,9.20
2023-11-01T13:51:59.619Z,10.25
2023-11-01T13:54:27.957Z,10.40
2023-11-01T13:56:56.338Z,12.27
2023-11-01T13:59:25.476Z,10.95
2023-11-01T14:01:56.358Z,9.32
2023-11-01T14:04:25.283Z,10.32
2023-11-01T14:06:53.783Z,10.05
2023-11-01T14:09:22.255Z,9.77
2023-11-01T14:11:56.031Z,13.07
2023-11-01T14:14:25.058Z,10.15
2023-11-01T14:16:55.152Z,8.82
2023-11-01T14:19:23.586Z,34.65
2023-11-01T14:21:51.927Z,16.33
2023-11-01T14:24:20.673Z,12.30
2023-11-01T14:26:49.221Z,7.28
2023-11-01T14:29:17.674Z,12.48
2023-11-01T14:31:46.053Z,9.02
2023-11-01T14:34:17.189Z,8.60
2023-11-01T14:36:45.588Z,11.15
2023-11-01T14:39:14.515Z,11.63
2023-11-01T14:41:43.624Z,14.88
2023-11-01T14:44:11.935Z,12.00
2023-11-01T14:46:42.911Z,12.68
2023-11-01T14:49:11.800Z,9.73
2023-11-01T14:51:44.730Z,11.80
2023-11-01T14:54:16.280Z,9.85
2023-11-01T14:56:46.200Z,10.10
2023-11-01T14:59:14.606Z,9.30
2023-11-01T15:01:51.475Z,10.25
2023-11-01T15:04:20.148Z,8.77
2023-11-01T15:06:50.193Z,10.48
2023-11-01T15:09:24.043Z,12.23
2023-11-01T15:11:52.468Z,9.98
2023-11-01T15:14:23.883Z,10.05
2023-11-01T15:16:54.791Z,10.80
2023-11-01T15:19:25.831Z,11.48
2023-11-01T15:21:56.516Z,9.07
2023-11-01T15:24:25.605Z,10.48
2023-11-01T15:26:55.424Z,8.18
2023-11-01T15:29:24.041Z,7.75
2023-11-01T15:31:53.695Z,7.43
2023-11-01T15:34:26.848Z,10.48
2023-11-01T15:36:56.551Z,8.18
2023-11-01T15:39:25.059Z,11.90
2023-11-01T15:41:53.815Z,11.60
2023-11-01T15:44:22.210Z,10.27
2023-11-01T15:46:51.490Z,12.93
2023-11-01T15:49:19.848Z,12.40
2023-11-01T15:51:48.164Z,16.20
2023-11-01T15:54:17.816Z,11.07
2023-11-01T15:56:46.142Z,9.57
2023-11-01T15:59:17.582Z,10.13
2023-11-01T16:01:52.254Z,10.07
2023-11-01T16:04:21.063Z,9.02
2023-11-01T16:06:49.409Z,11.52
2023-11-01T16:09:19.099Z,14.90
2023-11-01T16:11:47.600Z,14.38
2023-11-01T16:14:16.868Z,10.95
2023-11-01T16:16:47.229Z,11.00
2023-11-01T16:19:15.641Z,12.48
2023-11-01T16:21:49.050Z,12.05
2023-11-01T16:24:20.083Z,15.75
2023-11-01T16:27:04.083Z,10.68
2023-11-01T16:30:07.890Z,14.32
2023-11-01T16:35:22.764Z,8.50
2023-11-01T16:40:51.473Z,9.95
2023-11-01T16:43:38.784Z,10.25
2023-11-01T16:46:07.236Z,8.75
2023-11-01T16:48:35.784Z,8.63
2023-11-01T16:51:04.413Z,9.50
2023-11-01T16:53:32.787Z,13.45
2023-11-01T16:56:01.088Z,13.55
2023-11-01T16:58:30.067Z,13.13
2023-11-01T17:00:59.720Z,10.05
2023-11-01T17:03:31.268Z,10.35
2023-11-01T17:06:03.186Z,9.25
2023-11-01T17:08:32.033Z,10.40
2023-11-01T17:11:00.390Z,11.13
2023-11-01T17:13:28.735Z,11.10
2023-11-01T17:15:59.074Z,14.32
2023-11-01T17:18:29.023Z,9.90
2023-11-01T17:20:57.386Z,10.95
2023-11-01T17:23:27.939Z,12.68
2023-11-01T17:26:26.207Z,12.48
2023-11-01T17:28:55.529Z,11.90
2023-11-01T17:31:40.343Z,13.88
2023-11-01T17:34:11.081Z,11.32
2023-11-01T17:36:40.203Z,15.02
2023-11-01T17:39:09.462Z,38.35
2023-11-01T17:41:59.606Z,48.58
2023-11-01T17:44:31.974Z,26.40
2023-11-01T17:47:06.728Z,14.07
2023-11-01T17:50:25.985Z,38.42
2023-11-01T17:52:57.741Z,15.85
2023-11-01T17:55:27.328Z,23.00
2023-11-01T17:57:55.640Z,15.00
2023-11-01T18:00:31.843Z,16.73
2023-11-01T18:03:18.743Z,13.93
2023-11-01T18:06:15.139Z,11.85
2023-11-01T18:08:47.123Z,12.50
2023-11-01T18:11:27.584Z,15.55
2023-11-01T18:14:30.171Z,15.25
2023-11-01T18:17:02.161Z,16.35
2023-11-01T18:19:47.735Z,16.92
2023-11-01T18:22:48.684Z,15.82
2023-11-01T18:26:10.852Z,17.17
2023-11-01T18:28:44.759Z,13.07
2023-11-01T18:31:37.647Z,17.10
2023-11-01T18:34:07.306Z,14.00
2023-11-01T18:36:47.900Z,13.68
2023-11-01T18:39:22.584Z,16.05
2023-11-01T18:41:55.389Z,12.52
2023-11-01T18:44:25.437Z,14.05
2023-11-01T18:46:54.554Z,18.08
2023-11-01T18:49:51.535Z,14.05
2023-11-01T18:52:20.925Z,13.68
2023-11-01T18:54:50.390Z,12.98
2023-11-01T18:57:25.300Z,16.70
2023-11-01T18:59:53.764Z,16.45
2023-11-01T19:03:03.784Z,13.15
2023-11-01T19:05:34.265Z,12.77
2023-11-01T19:08:03.069Z,12.32
2023-11-01T19:10:34.343Z,10.98
2023-11-01T19:13:04.728Z,15.00
2023-11-01T19:16:11.989Z,14.68
2023-11-01T19:18:46.675Z,11.20
2023-11-01T19:21:15.226Z,12.82
2023-11-01T19:23:47.021Z,13.60
2023-11-01T19:26:16.311Z,15.80
2023-11-01T19:28:46.037Z,14.70
2023-11-01T19:31:20.371Z,12.10
2023-11-01T19:33:56.718Z,13.25
2023-11-01T19:36:25.310Z,12.73
2023-11-01T19:38:53.657Z,12.75
2023-11-01T19:41:24.508Z,11.75
2023-11-01T19:43:59.378Z,17.15
2023-11-01T19:46:27.959Z,12.30
2023-11-01T19:48:58.398Z,9.70
2023-11-01T19:51:26.723Z,11.25
2023-11-01T19:53:55.054Z,12.50
2023-11-01T19:56:24.664Z,14.98
2023-11-01T19:58:56.506Z,13.88
2023-11-01T20:01:25.418Z,12.00
2023-11-01T20:03:54.059Z,14.73
2023-11-01T20:06:23.297Z,14.52
2023-11-01T20:08:51.714Z,13.07
2023-11-01T20:11:20.099Z,12.23
2023-11-01T20:13:48.458Z,13.35
2023-11-01T20:16:30.274Z,17.83
2023-11-01T20:19:09.785Z,13.55
2023-11-01T20:21:39.515Z,13.98
2023-11-01T20:24:09.883Z,11.10
2023-11-01T20:26:38.568Z,13.43
2023-11-01T20:29:07.646Z,15.85
2023-11-01T20:31:37.330Z,15.85
2023-11-01T20:34:05.741Z,17.15
2023-11-01T20:36:34.677Z,16.73
2023-11-01T20:39:03.047Z,13.90
2023-11-01T20:41:31.354Z,15.00
2023-11-01T20:43:59.700Z,16.45
2023-11-01T20:46:28.499Z,14.27
2023-11-01T20:48:58.717Z,15.48
2023-11-01T20:51:27.148Z,13.20
2023-11-01T20:53:56.204Z,12.60
2023-11-01T20:56:24.573Z,15.95
2023-11-01T20:58:53.043Z,13.98
2023-11-01T21:01:21.377Z,13.77
2023-11-01T21:03:49.883Z,13.50
2023-11-01T21:06:21.489Z,14.63
2023-11-01T21:08:53.133Z,14.13
2023-11-01T21:11:25.372Z,13.85
2023-11-01T21:13:54.348Z,16.55
2023-11-01T21:16:30.358Z,12.55
2023-11-01T21:24:31.715Z,13.88
2023-11-01T21:27:02.648Z,12.63
2023-11-01T21:29:31.032Z,12.27
2023-11-01T21:31:59.424Z,16.13
2023-11-01T21:34:28.508Z,15.60
2023-11-01T21:36:56.938Z,15.20
2023-11-01T21:39:29.134Z,15.48
2023-11-01T21:42:00.064Z,14.88
2023-11-01T21:44:35.995Z,13.55
2023-11-01T21:47:08.920Z,13.10
2023-11-01T21:49:38.044Z,12.57
2023-11-01T21:52:17.819Z,14.75
2023-11-01T21:54:46.749Z,20.50
2023-11-01T21:57:22.721Z,16.80
2023-11-01T21:59:51.163Z,17.67
2023-11-01T22:02:33.614Z,22.73
2023-11-01T22:05:02.069Z,15.98
2023-11-01T22:07:30.560Z,15.35
2023-11-01T22:09:59.077Z,16.75
2023-11-01T22:12:33.419Z,15.55
2023-11-01T22:17:37.655Z,11.70
2023-11-01T22:20:09.451Z,12.85
2023-11-01T22:22:50.056Z,11.32
2023-11-01T22:25:34.720Z,11.38
2023-11-01T22:30:34.816Z,13.55
2023-11-01T22:33:07.583Z,13.73
2023-11-01T22:35:40.759Z,12.90
2023-11-01T22:38:10.288Z,17.05
2023-11-01T22:40:41.487Z,12.00
2023-11-01T22:43:11.841Z,15.30
2023-11-01T22:45:41.230Z,20.75
2023-11-01T22:48:09.958Z,16.80
2023-11-01T22:50:38.496Z,14.43
2023-11-01T22:53:06.804Z,18.45
2023-11-01T22:55:41.673Z,12.75
2023-11-01T22:58:12.349Z,14.63
2023-11-01T23:00:42.084Z,17.90
2023-11-01T23:03:12.352Z,13.07
2023-11-01T23:05:43.692Z,14.88
2023-11-01T23:08:12.057Z,12.40
2023-11-01T23:10:40.411Z,12.50
2023-11-01T23:13:08.776Z,13.23
2023-11-01T23:15:38.501Z,14.18
2023-11-01T23:18:07.160Z,12.95
2023-11-01T23:20:35.940Z,14.20
2023-11-01T23:23:04.285Z,14.43
2023-11-01T23:25:33.740Z,12.85
2023-11-01T23:28:08.907Z,14.68
2023-11-01T23:30:50.761Z,13.98
2023-11-01T23:33:20.000Z,12.88
2023-11-01T23:35:48.612Z,10.27
2023-11-01T23:38:17.325Z,12.63
2023-11-01T23:40:45.667Z,14.35
2023-11-01T23:43:15.545Z,10.88
2023-11-01T23:46:11.055Z,12.20
2023-11-01T23:48:42.413Z,15.23
2023-11-01T23:51:12.475Z,17.48
2023-11-01T23:53:42.213Z,15.10
2023-11-01T23:56:20.474Z,15.43
2023-11-01T23:58:49.708Z,12.40
